East Carver, Massachusetts
Current Conditions -  °F | °C
As of 5:27 AM on Tuesday 27 Jan 2015 (Local Time) from KPYM Reporting Station
Haze Haze  
Wind Chill:   Ceiling: 300
Heat Index: 24°   Visibility: 1mi
Dew Point: 22°   Wind: 38mph
Humidity: 91%   Direction: 10°N
Pressure: 29.44"   Gusts: 61mph
Location:  41.9272°N, 70.7516°W
Report Text: KPYM 271027Z AUTO 01033G53KT 1SM BR VV003 M04/M06 A2944 RMK AO2 PK WND 36053/1023 T10441056 PWINO FZRANO $
Loading
Personal Weather Stations






























Interactive Weather Map New forecast layout! Learn more

10-Day Weather Forecast

Advertisements
Track Severe Weather on mobile